sensor_id;sensor_type;location;lat;lon;timestamp;pressure;altitude;pressure_sealevel;temperature;humidity
78064;BME280;67429;51.596;-3.264;2023-07-02T00:01:55;99067.01;;;12.34;50.39
78064;BME280;67429;51.596;-3.264;2023-07-02T00:04:20;99070.32;;;12.50;50.25
78064;BME280;67429;51.596;-3.264;2023-07-02T00:06:45;99072.67;;;12.15;50.67
78064;BME280;67429;51.596;-3.264;2023-07-02T00:09:10;99074.53;;;12.73;49.53
78064;BME280;67429;51.596;-3.264;2023-07-02T00:11:37;99074.31;;;12.57;49.21
78064;BME280;67429;51.596;-3.264;2023-07-02T00:14:02;99075.86;;;12.44;48.91
78064;BME280;67429;51.596;-3.264;2023-07-02T00:16:27;99076.09;;;12.56;49.13
78064;BME280;67429;51.596;-3.264;2023-07-02T00:18:52;99072.33;;;12.10;50.18
78064;BME280;67429;51.596;-3.264;2023-07-02T00:21:17;99070.44;;;11.76;50.60
78064;BME280;67429;51.596;-3.264;2023-07-02T00:23:44;99069.25;;;12.00;50.75
78064;BME280;67429;51.596;-3.264;2023-07-02T00:26:08;99067.16;;;11.72;51.18
78064;BME280;67429;51.596;-3.264;2023-07-02T00:28:33;99066.34;;;11.58;51.72
78064;BME280;67429;51.596;-3.264;2023-07-02T00:30:58;99070.75;;;11.28;52.73
78064;BME280;67429;51.596;-3.264;2023-07-02T00:33:24;99070.24;;;11.66;51.30
78064;BME280;67429;51.596;-3.264;2023-07-02T00:35:49;99074.93;;;11.72;51.13
78064;BME280;67429;51.596;-3.264;2023-07-02T00:38:15;99075.74;;;11.65;51.21
78064;BME280;67429;51.596;-3.264;2023-07-02T00:40:40;99074.15;;;12.23;49.98
78064;BME280;67429;51.596;-3.264;2023-07-02T00:43:05;99074.97;;;12.40;49.24
78064;BME280;67429;51.596;-3.264;2023-07-02T00:45:31;99074.74;;;12.40;49.25
78064;BME280;67429;51.596;-3.264;2023-07-02T00:47:56;99073.81;;;12.05;50.15
78064;BME280;67429;51.596;-3.264;2023-07-02T00:50:21;99071.13;;;12.52;49.66
78064;BME280;67429;51.596;-3.264;2023-07-02T00:52:46;99069.13;;;11.92;50.72
78064;BME280;67429;51.596;-3.264;2023-07-02T00:55:11;99069.32;;;12.33;50.47
78064;BME280;67429;51.596;-3.264;2023-07-02T00:57:36;99069.23;;;11.67;51.79
78064;BME280;67429;51.596;-3.264;2023-07-02T01:00:01;99075.23;;;11.50;52.25
78064;BME280;67429;51.596;-3.264;2023-07-02T01:02:27;99076.40;;;11.63;52.22
78064;BME280;67429;51.596;-3.264;2023-07-02T01:04:52;99079.42;;;11.69;51.68
78064;BME280;67429;51.596;-3.264;2023-07-02T01:07:17;99079.81;;;11.81;51.52
78064;BME280;67429;51.596;-3.264;2023-07-02T01:09:43;99077.63;;;11.44;52.23
78064;BME280;67429;51.596;-3.264;2023-07-02T01:12:09;99079.12;;;11.93;51.04
78064;BME280;67429;51.596;-3.264;2023-07-02T01:14:36;99079.36;;;11.92;51.80
78064;BME280;67429;51.596;-3.264;2023-07-02T01:17:01;99082.50;;;11.60;53.24
78064;BME280;67429;51.596;-3.264;2023-07-02T01:19:35;99082.73;;;11.10;53.29
78064;BME280;67429;51.596;-3.264;2023-07-02T01:21:50;99083.62;;;11.53;52.59
78064;BME280;67429;51.596;-3.264;2023-07-02T01:24:16;99086.47;;;11.39;52.89
78064;BME280;67429;51.596;-3.264;2023-07-02T01:26:41;99086.07;;;12.04;53.04
78064;BME280;67429;51.596;-3.264;2023-07-02T01:29:14;99089.75;;;11.50;53.79
78064;BME280;67429;51.596;-3.264;2023-07-02T01:31:32;99090.09;;;11.74;52.96
78064;BME280;67429;51.596;-3.264;2023-07-02T01:33:58;99091.51;;;11.68;52.69
78064;BME280;67429;51.596;-3.264;2023-07-02T01:36:23;99091.20;;;11.80;52.56
78064;BME280;67429;51.596;-3.264;2023-07-02T01:38:48;99090.71;;;11.26;53.42
78064;BME280;67429;51.596;-3.264;2023-07-02T01:41:14;99093.12;;;11.40;53.49
78064;BME280;67429;51.596;-3.264;2023-07-02T01:43:40;99093.95;;;11.79;52.73
78064;BME280;67429;51.596;-3.264;2023-07-02T01:46:06;99094.20;;;11.58;52.97
78064;BME280;67429;51.596;-3.264;2023-07-02T01:48:30;99098.65;;;11.86;52.64
78064;BME280;67429;51.596;-3.264;2023-07-02T01:50:55;99095.55;;;11.33;54.05
78064;BME280;67429;51.596;-3.264;2023-07-02T01:53:21;99094.13;;;11.18;53.87
78064;BME280;67429;51.596;-3.264;2023-07-02T01:55:47;99093.80;;;11.04;54.16
78064;BME280;67429;51.596;-3.264;2023-07-02T01:58:12;99089.49;;;10.85;55.47
78064;BME280;67429;51.596;-3.264;2023-07-02T02:00:38;99089.41;;;10.84;55.67
78064;BME280;67429;51.596;-3.264;2023-07-02T02:03:04;99088.22;;;10.90;55.61
78064;BME280;67429;51.596;-3.264;2023-07-02T02:05:28;99088.95;;;10.89;56.00
78064;BME280;67429;51.596;-3.264;2023-07-02T02:07:54;99090.60;;;10.66;56.16
78064;BME280;67429;51.596;-3.264;2023-07-02T02:10:20;99096.26;;;11.76;54.40
78064;BME280;67429;51.596;-3.264;2023-07-02T02:12:45;99095.59;;;11.38;54.59
78064;BME280;67429;51.596;-3.264;2023-07-02T02:15:10;99095.84;;;12.05;53.17
78064;BME280;67429;51.596;-3.264;2023-07-02T02:17:37;99096.10;;;11.36;53.65
78064;BME280;67429;51.596;-3.264;2023-07-02T02:20:01;99096.22;;;11.01;54.59
78064;BME280;67429;51.596;-3.264;2023-07-02T02:22:27;99097.97;;;11.17;55.23
78064;BME280;67429;51.596;-3.264;2023-07-02T02:24:53;99095.39;;;11.51;54.53
78064;BME280;67429;51.596;-3.264;2023-07-02T02:27:17;99095.06;;;11.01;54.88
78064;BME280;67429;51.596;-3.264;2023-07-02T02:29:43;99093.33;;;11.28;54.90
78064;BME280;67429;51.596;-3.264;2023-07-02T02:32:09;99097.32;;;11.69;54.17
78064;BME280;67429;51.596;-3.264;2023-07-02T02:34:34;99096.69;;;11.83;53.69
78064;BME280;67429;51.596;-3.264;2023-07-02T02:36:59;99097.89;;;11.24;53.98
78064;BME280;67429;51.596;-3.264;2023-07-02T02:39:24;99096.50;;;11.61;53.04
78064;BME280;67429;51.596;-3.264;2023-07-02T02:41:50;99098.53;;;11.46;53.30
78064;BME280;67429;51.596;-3.264;2023-07-02T02:44:15;99102.52;;;11.49;53.57
78064;BME280;67429;51.596;-3.264;2023-07-02T02:46:40;99101.81;;;12.01;53.18
78064;BME280;67429;51.596;-3.264;2023-07-02T02:49:06;99106.85;;;11.48;53.28
78064;BME280;67429;51.596;-3.264;2023-07-02T02:51:31;99113.92;;;11.73;52.62
78064;BME280;67429;51.596;-3.264;2023-07-02T02:53:57;99120.43;;;12.10;51.75
78064;BME280;67429;51.596;-3.264;2023-07-02T02:56:22;99123.98;;;11.60;52.79
78064;BME280;67429;51.596;-3.264;2023-07-02T02:58:47;99124.39;;;11.54;53.12
78064;BME280;67429;51.596;-3.264;2023-07-02T03:01:13;99124.98;;;11.85;52.98
78064;BME280;67429;51.596;-3.264;2023-07-02T03:03:39;99123.97;;;12.05;52.62
78064;BME280;67429;51.596;-3.264;2023-07-02T03:06:04;99124.57;;;11.72;52.68
78064;BME280;67429;51.596;-3.264;2023-07-02T03:08:30;99124.82;;;11.40;53.30
78064;BME280;67429;51.596;-3.264;2023-07-02T03:10:55;99124.55;;;11.71;53.27
78064;BME280;67429;51.596;-3.264;2023-07-02T03:13:21;99119.45;;;11.24;54.81
78064;BME280;67429;51.596;-3.264;2023-07-02T03:15:47;99117.35;;;11.12;55.30
78064;BME280;67429;51.596;-3.264;2023-07-02T03:18:12;99116.87;;;10.90;55.63
78064;BME280;67429;51.596;-3.264;2023-07-02T03:20:37;99119.84;;;11.11;55.31
78064;BME280;67429;51.596;-3.264;2023-07-02T03:23:03;99118.44;;;11.34;54.78
78064;BME280;67429;51.596;-3.264;2023-07-02T03:25:28;99124.91;;;11.32;53.70
78064;BME280;67429;51.596;-3.264;2023-07-02T03:27:54;99122.40;;;11.34;53.63
78064;BME280;67429;51.596;-3.264;2023-07-02T03:30:20;99123.56;;;11.34;54.45
78064;BME280;67429;51.596;-3.264;2023-07-02T03:32:45;99126.00;;;11.42;54.25
78064;BME280;67429;51.596;-3.264;2023-07-02T03:35:10;99129.06;;;11.82;52.82
78064;BME280;67429;51.596;-3.264;2023-07-02T03:37:36;99132.63;;;11.51;52.70
78064;BME280;67429;51.596;-3.264;2023-07-02T03:40:02;99130.66;;;11.31;53.70
78064;BME280;67429;51.596;-3.264;2023-07-02T03:42:27;99131.63;;;11.36;53.28
78064;BME280;67429;51.596;-3.264;2023-07-02T03:44:52;99130.65;;;11.69;52.58
78064;BME280;67429;51.596;-3.264;2023-07-02T03:47:17;99132.07;;;11.33;53.24
78064;BME280;67429;51.596;-3.264;2023-07-02T03:49:44;99130.96;;;11.26;53.44
78064;BME280;67429;51.596;-3.264;2023-07-02T03:52:08;99131.56;;;11.02;53.47
78064;BME280;67429;51.596;-3.264;2023-07-02T03:54:33;99133.16;;;10.99;54.19
78064;BME280;67429;51.596;-3.264;2023-07-02T03:56:59;99133.64;;;10.89;55.86
78064;BME280;67429;51.596;-3.264;2023-07-02T03:59:25;99137.72;;;10.87;55.97
78064;BME280;67429;51.596;-3.264;2023-07-02T04:01:50;99138.08;;;10.63;56.59
78064;BME280;67429;51.596;-3.264;2023-07-02T04:04:16;99140.44;;;11.10;56.21
78064;BME280;67429;51.596;-3.264;2023-07-02T04:06:42;99141.10;;;10.89;55.65
78064;BME280;67429;51.596;-3.264;2023-07-02T04:09:07;99140.07;;;11.13;55.06
78064;BME280;67429;51.596;-3.264;2023-07-02T04:11:34;99141.26;;;11.15;53.97
78064;BME280;67429;51.596;-3.264;2023-07-02T04:14:00;99145.59;;;11.48;53.83
78064;BME280;67429;51.596;-3.264;2023-07-02T04:16:24;99149.89;;;11.26;52.82
78064;BME280;67429;51.596;-3.264;2023-07-02T04:18:49;99147.06;;;11.42;53.65
78064;BME280;67429;51.596;-3.264;2023-07-02T04:21:15;99146.44;;;10.96;54.03
78064;BME280;67429;51.596;-3.264;2023-07-02T04:23:40;99142.00;;;11.53;53.66
78064;BME280;67429;51.596;-3.264;2023-07-02T04:26:05;99142.07;;;11.32;52.95
78064;BME280;67429;51.596;-3.264;2023-07-02T04:28:31;99140.59;;;11.73;52.42
78064;BME280;67429;51.596;-3.264;2023-07-02T04:30:56;99140.00;;;11.59;53.85
78064;BME280;67429;51.596;-3.264;2023-07-02T04:33:22;99135.80;;;10.76;55.78
78064;BME280;67429;51.596;-3.264;2023-07-02T04:35:47;99131.88;;;10.81;56.29
78064;BME280;67429;51.596;-3.264;2023-07-02T04:38:13;99128.85;;;10.46;56.96
78064;BME280;67429;51.596;-3.264;2023-07-02T04:40:38;99129.59;;;10.54;57.00
78064;BME280;67429;51.596;-3.264;2023-07-02T04:43:04;99133.54;;;9.84;59.47
78064;BME280;67429;51.596;-3.264;2023-07-02T04:45:29;99135.62;;;9.70;59.83
78064;BME280;67429;51.596;-3.264;2023-07-02T04:47:54;99144.23;;;9.83;60.67
78064;BME280;67429;51.596;-3.264;2023-07-02T04:50:21;99141.93;;;9.76;59.81
78064;BME280;67429;51.596;-3.264;2023-07-02T04:52:46;99140.14;;;10.25;58.70
78064;BME280;67429;51.596;-3.264;2023-07-02T04:55:11;99136.87;;;9.65;60.29
78064;BME280;67429;51.596;-3.264;2023-07-02T04:57:37;99137.36;;;10.23;58.81
78064;BME280;67429;51.596;-3.264;2023-07-02T05:00:03;99132.99;;;9.67;60.26
78064;BME280;67429;51.596;-3.264;2023-07-02T05:02:28;99136.16;;;9.64;60.86
78064;BME280;67429;51.596;-3.264;2023-07-02T05:04:53;99138.17;;;9.82;60.95
78064;BME280;67429;51.596;-3.264;2023-07-02T05:07:19;99141.19;;;9.57;61.16
78064;BME280;67429;51.596;-3.264;2023-07-02T05:09:44;99141.79;;;9.64;60.35
78064;BME280;67429;51.596;-3.264;2023-07-02T05:12:10;99140.15;;;10.62;58.21
78064;BME280;67429;51.596;-3.264;2023-07-02T05:14:35;99144.93;;;11.39;55.60
78064;BME280;67429;51.596;-3.264;2023-07-02T05:17:01;99144.01;;;11.99;54.79
78064;BME280;67429;51.596;-3.264;2023-07-02T05:19:26;99143.84;;;11.40;55.00
78064;BME280;67429;51.596;-3.264;2023-07-02T05:21:52;99146.36;;;11.73;54.41
78064;BME280;67429;51.596;-3.264;2023-07-02T05:24:17;99148.68;;;10.95;55.98
78064;BME280;67429;51.596;-3.264;2023-07-02T05:26:43;99149.84;;;10.63;57.01
78064;BME280;67429;51.596;-3.264;2023-07-02T05:29:09;99148.78;;;10.82;56.39
78064;BME280;67429;51.596;-3.264;2023-07-02T05:31:33;99149.37;;;10.72;57.30
78064;BME280;67429;51.596;-3.264;2023-07-02T05:34:00;99144.02;;;10.68;58.09
78064;BME280;67429;51.596;-3.264;2023-07-02T05:36:26;99148.07;;;10.93;57.07
78064;BME280;67429;51.596;-3.264;2023-07-02T05:38:49;99152.15;;;11.67;54.70
78064;BME280;67429;51.596;-3.264;2023-07-02T05:41:19;99155.13;;;12.07;53.55
78064;BME280;67429;51.596;-3.264;2023-07-02T05:43:41;99158.49;;;12.30;52.94
78064;BME280;67429;51.596;-3.264;2023-07-02T05:46:06;99162.23;;;12.18;53.00
78064;BME280;67429;51.596;-3.264;2023-07-02T05:48:33;99163.55;;;12.63;52.16
78064;BME280;67429;51.596;-3.264;2023-07-02T05:50:57;99165.46;;;13.22;50.82
78064;BME280;67429;51.596;-3.264;2023-07-02T05:53:23;99166.19;;;12.96;50.22
78064;BME280;67429;51.596;-3.264;2023-07-02T05:55:49;99169.45;;;13.63;48.93
78064;BME280;67429;51.596;-3.264;2023-07-02T05:58:14;99167.70;;;13.09;49.78
78064;BME280;67429;51.596;-3.264;2023-07-02T06:00:39;99168.22;;;12.65;50.99
78064;BME280;67429;51.596;-3.264;2023-07-02T06:03:05;99168.70;;;12.51;50.16
78064;BME280;67429;51.596;-3.264;2023-07-02T06:05:30;99175.73;;;12.81;50.18
78064;BME280;67429;51.596;-3.264;2023-07-02T06:07:57;99186.55;;;13.57;49.16
78064;BME280;67429;51.596;-3.264;2023-07-02T06:10:21;99190.30;;;13.48;48.42
78064;BME280;67429;51.596;-3.264;2023-07-02T06:12:46;99184.77;;;12.95;49.39
78064;BME280;67429;51.596;-3.264;2023-07-02T06:15:12;99184.55;;;13.10;49.27
78064;BME280;67429;51.596;-3.264;2023-07-02T06:17:38;99184.61;;;12.89;48.88
78064;BME280;67429;51.596;-3.264;2023-07-02T06:20:04;99188.54;;;14.02;47.87
78064;BME280;67429;51.596;-3.264;2023-07-02T06:22:31;99187.63;;;12.78;48.68
78064;BME280;67429;51.596;-3.264;2023-07-02T06:24:55;99193.33;;;13.15;49.23
78064;BME280;67429;51.596;-3.264;2023-07-02T06:27:20;99193.85;;;12.76;49.84
78064;BME280;67429;51.596;-3.264;2023-07-02T06:29:46;99197.73;;;13.46;48.01
78064;BME280;67429;51.596;-3.264;2023-07-02T06:32:12;99201.90;;;14.36;46.25
78064;BME280;67429;51.596;-3.264;2023-07-02T06:34:37;99197.15;;;14.26;46.27
78064;BME280;67429;51.596;-3.264;2023-07-02T06:37:03;99208.42;;;14.81;45.20
78064;BME280;67429;51.596;-3.264;2023-07-02T06:39:28;99211.60;;;14.59;45.44
78064;BME280;67429;51.596;-3.264;2023-07-02T06:41:53;99206.78;;;15.12;44.41
78064;BME280;67429;51.596;-3.264;2023-07-02T06:44:19;99188.57;;;15.63;43.58
78064;BME280;67429;51.596;-3.264;2023-07-02T06:46:46;99188.21;;;16.28;42.63
78064;BME280;67429;51.596;-3.264;2023-07-02T06:49:11;99195.34;;;16.36;41.39
78064;BME280;67429;51.596;-3.264;2023-07-02T06:51:35;99203.95;;;16.45;40.81
78064;BME280;67429;51.596;-3.264;2023-07-02T06:54:01;99204.08;;;17.04;39.54
78064;BME280;67429;51.596;-3.264;2023-07-02T06:56:26;99200.46;;;16.91;39.67
78064;BME280;67429;51.596;-3.264;2023-07-02T06:58:52;99205.14;;;16.26;39.83
78064;BME280;67429;51.596;-3.264;2023-07-02T07:01:17;99201.48;;;15.45;41.02
78064;BME280;67429;51.596;-3.264;2023-07-02T07:03:43;99201.43;;;16.00;40.30
78064;BME280;67429;51.596;-3.264;2023-07-02T07:06:09;99201.44;;;15.51;41.26
78064;BME280;67429;51.596;-3.264;2023-07-02T07:08:37;99205.28;;;15.40;41.17
78064;BME280;67429;51.596;-3.264;2023-07-02T07:10:59;99207.11;;;17.27;39.19
78064;BME280;67429;51.596;-3.264;2023-07-02T07:13:25;99209.41;;;16.07;40.18
78064;BME280;67429;51.596;-3.264;2023-07-02T07:15:51;99212.50;;;15.26;42.46
78064;BME280;67429;51.596;-3.264;2023-07-02T07:18:16;99219.45;;;15.51;42.47
78064;BME280;67429;51.596;-3.264;2023-07-02T07:20:42;99216.82;;;16.73;40.40
78064;BME280;67429;51.596;-3.264;2023-07-02T07:23:07;99210.40;;;16.30;40.07
78064;BME280;67429;51.596;-3.264;2023-07-02T07:25:33;99211.99;;;15.44;41.87
78064;BME280;67429;51.596;-3.264;2023-07-02T07:27:59;99215.05;;;16.80;39.79
78064;BME280;67429;51.596;-3.264;2023-07-02T07:30:24;99215.55;;;17.89;38.41
78064;BME280;67429;51.596;-3.264;2023-07-02T07:32:50;99215.44;;;16.94;38.73
78064;BME280;67429;51.596;-3.264;2023-07-02T07:35:15;99216.21;;;17.47;38.42
78064;BME280;67429;51.596;-3.264;2023-07-02T07:37:40;99213.91;;;17.85;37.66
78064;BME280;67429;51.596;-3.264;2023-07-02T07:40:07;99217.79;;;16.90;38.57
78064;BME280;67429;51.596;-3.264;2023-07-02T07:42:31;99219.91;;;16.66;39.09
78064;BME280;67429;51.596;-3.264;2023-07-02T07:44:56;99227.75;;;15.78;41.36
78064;BME280;67429;51.596;-3.264;2023-07-02T07:47:22;99231.85;;;15.17;41.73
78064;BME280;67429;51.596;-3.264;2023-07-02T07:49:48;99230.44;;;14.77;42.55
78064;BME280;67429;51.596;-3.264;2023-07-02T07:52:14;99226.99;;;14.43;43.60
78064;BME280;67429;51.596;-3.264;2023-07-02T07:54:39;99229.74;;;14.89;43.27
78064;BME280;67429;51.596;-3.264;2023-07-02T07:57:05;99232.63;;;14.41;43.01
78064;BME280;67429;51.596;-3.264;2023-07-02T07:59:30;99231.41;;;14.13;44.05
78064;BME280;67429;51.596;-3.264;2023-07-02T08:01:55;99235.38;;;14.91;43.93
78064;BME280;67429;51.596;-3.264;2023-07-02T08:04:21;99223.71;;;16.18;40.59
78064;BME280;67429;51.596;-3.264;2023-07-02T08:06:46;99218.82;;;16.68;38.85
78064;BME280;67429;51.596;-3.264;2023-07-02T08:09:12;99222.71;;;17.23;37.82
78064;BME280;67429;51.596;-3.264;2023-07-02T08:11:37;99217.46;;;17.55;36.41
78064;BME280;67429;51.596;-3.264;2023-07-02T08:14:02;99219.06;;;17.85;36.55
78064;BME280;67429;51.596;-3.264;2023-07-02T08:16:28;99224.74;;;16.42;37.75
78064;BME280;67429;51.596;-3.264;2023-07-02T08:18:54;99228.89;;;16.13;37.81
78064;BME280;67429;51.596;-3.264;2023-07-02T08:21:18;99228.55;;;14.91;40.40
78064;BME280;67429;51.596;-3.264;2023-07-02T08:23:44;99232.98;;;14.99;39.21
78064;BME280;67429;51.596;-3.264;2023-07-02T08:26:10;99230.30;;;14.71;39.69
78064;BME280;67429;51.596;-3.264;2023-07-02T08:28:36;99228.00;;;14.45;41.06
78064;BME280;67429;51.596;-3.264;2023-07-02T08:31:01;99227.88;;;14.67;40.59
78064;BME280;67429;51.596;-3.264;2023-07-02T08:33:26;99227.11;;;14.70;39.78
78064;BME280;67429;51.596;-3.264;2023-07-02T08:35:51;99227.98;;;15.13;39.50
78064;BME280;67429;51.596;-3.264;2023-07-02T08:38:17;99224.50;;;15.18;38.55
78064;BME280;67429;51.596;-3.264;2023-07-02T08:40:43;99221.73;;;15.44;38.38
78064;BME280;67429;51.596;-3.264;2023-07-02T08:43:08;99220.21;;;15.52;37.69
78064;BME280;67429;51.596;-3.264;2023-07-02T08:45:34;99221.33;;;15.98;36.42
78064;BME280;67429;51.596;-3.264;2023-07-02T08:47:59;99231.00;;;15.15;36.50
78064;BME280;67429;51.596;-3.264;2023-07-02T08:50:25;99218.60;;;14.69;37.36
78064;BME280;67429;51.596;-3.264;2023-07-02T08:52:50;99229.48;;;14.49;36.97
78064;BME280;67429;51.596;-3.264;2023-07-02T08:55:16;99228.21;;;14.20;36.96
78064;BME280;67429;51.596;-3.264;2023-07-02T08:57:48;99226.38;;;15.09;35.70
78064;BME280;67429;51.596;-3.264;2023-07-02T09:00:09;99226.55;;;15.29;34.54
78064;BME280;67429;51.596;-3.264;2023-07-02T09:02:32;99227.43;;;15.28;34.75
78064;BME280;67429;51.596;-3.264;2023-07-02T09:04:59;99230.24;;;15.57;35.15
78064;BME280;67429;51.596;-3.264;2023-07-02T09:07:23;99231.26;;;14.94;34.97
78064;BME280;67429;51.596;-3.264;2023-07-02T09:09:50;99224.86;;;15.63;34.59
78064;BME280;67429;51.596;-3.264;2023-07-02T09:12:24;99216.59;;;16.28;33.75
78064;BME280;67429;51.596;-3.264;2023-07-02T09:14:40;99214.62;;;16.76;33.50
78064;BME280;67429;51.596;-3.264;2023-07-02T09:17:07;99210.03;;;16.57;33.44
78064;BME280;67429;51.596;-3.264;2023-07-02T09:19:31;99214.18;;;16.44;33.79
78064;BME280;67429;51.596;-3.264;2023-07-02T09:21:58;99212.30;;;15.46;34.67
78064;BME280;67429;51.596;-3.264;2023-07-02T09:24:23;99215.09;;;15.73;34.01
78064;BME280;67429;51.596;-3.264;2023-07-02T09:26:50;99218.70;;;14.94;34.61
78064;BME280;67429;51.596;-3.264;2023-07-02T09:29:13;99214.54;;;15.87;33.68
78064;BME280;67429;51.596;-3.264;2023-07-02T09:31:45;99223.50;;;15.87;34.06
78064;BME280;67429;51.596;-3.264;2023-07-02T09:34:03;99224.18;;;16.19;32.70
78064;BME280;67429;51.596;-3.264;2023-07-02T09:36:29;99224.88;;;16.63;32.07
78064;BME280;67429;51.596;-3.264;2023-07-02T09:38:54;99222.80;;;16.18;31.93
78064;BME280;67429;51.596;-3.264;2023-07-02T09:41:20;99220.95;;;16.55;31.43
78064;BME280;67429;51.596;-3.264;2023-07-02T09:43:46;99221.35;;;16.16;32.22
78064;BME280;67429;51.596;-3.264;2023-07-02T09:46:11;99221.93;;;16.09;32.86
78064;BME280;67429;51.596;-3.264;2023-07-02T09:48:37;99221.42;;;16.43;33.06
78064;BME280;67429;51.596;-3.264;2023-07-02T09:51:03;99222.52;;;16.38;32.59
78064;BME280;67429;51.596;-3.264;2023-07-02T09:53:28;99221.68;;;16.34;32.83
78064;BME280;67429;51.596;-3.264;2023-07-02T09:55:53;99216.01;;;16.28;32.85
78064;BME280;67429;51.596;-3.264;2023-07-02T09:58:18;99213.88;;;15.65;33.97
78064;BME280;67429;51.596;-3.264;2023-07-02T10:00:43;99217.04;;;16.43;33.72
78064;BME280;67429;51.596;-3.264;2023-07-02T10:03:09;99219.76;;;17.11;32.23
78064;BME280;67429;51.596;-3.264;2023-07-02T10:05:36;99221.12;;;17.05;32.43
78064;BME280;67429;51.596;-3.264;2023-07-02T10:08:11;99213.37;;;17.69;31.02
78064;BME280;67429;51.596;-3.264;2023-07-02T10:10:28;99209.90;;;17.53;31.47
78064;BME280;67429;51.596;-3.264;2023-07-02T10:12:50;99211.82;;;17.62;31.69
78064;BME280;67429;51.596;-3.264;2023-07-02T10:15:24;99207.86;;;17.14;32.23
78064;BME280;67429;51.596;-3.264;2023-07-02T10:17:41;99212.84;;;17.55;32.13
78064;BME280;67429;51.596;-3.264;2023-07-02T10:20:08;99210.84;;;17.18;31.73
78064;BME280;67429;51.596;-3.264;2023-07-02T10:22:42;99218.75;;;17.18;32.19
78064;BME280;67429;51.596;-3.264;2023-07-02T10:24:58;99226.49;;;17.04;32.07
78064;BME280;67429;51.596;-3.264;2023-07-02T10:27:33;99227.53;;;16.27;32.42
78064;BME280;67429;51.596;-3.264;2023-07-02T10:29:50;99228.12;;;16.87;32.99
78064;BME280;67429;51.596;-3.264;2023-07-02T10:32:27;99224.35;;;16.67;33.16
78064;BME280;67429;51.596;-3.264;2023-07-02T10:34:39;99218.35;;;16.56;33.95
78064;BME280;67429;51.596;-3.264;2023-07-02T10:37:05;99221.46;;;18.56;32.76
78064;BME280;67429;51.596;-3.264;2023-07-02T10:39:31;99221.07;;;18.06;32.62
78064;BME280;67429;51.596;-3.264;2023-07-02T10:42:04;99212.73;;;17.70;33.31
78064;BME280;67429;51.596;-3.264;2023-07-02T10:44:21;99214.19;;;18.21;33.08
78064;BME280;67429;51.596;-3.264;2023-07-02T10:46:48;99201.50;;;18.24;33.65
78064;BME280;67429;51.596;-3.264;2023-07-02T10:49:14;99208.35;;;18.66;32.32
78064;BME280;67429;51.596;-3.264;2023-07-02T10:51:38;99207.74;;;17.76;32.11
78064;BME280;67429;51.596;-3.264;2023-07-02T10:54:03;99203.75;;;19.21;31.05
78064;BME280;67429;51.596;-3.264;2023-07-02T10:56:30;99200.33;;;18.50;31.18
78064;BME280;67429;51.596;-3.264;2023-07-02T10:58:54;99201.65;;;18.38;32.22
78064;BME280;67429;51.596;-3.264;2023-07-02T11:01:24;99202.54;;;16.84;33.97
78064;BME280;67429;51.596;-3.264;2023-07-02T11:03:46;99199.52;;;15.89;35.76
78064;BME280;67429;51.596;-3.264;2023-07-02T11:06:11;99193.20;;;16.12;36.03
78064;BME280;67429;51.596;-3.264;2023-07-02T11:08:36;99197.40;;;16.92;35.59
78064;BME280;67429;51.596;-3.264;2023-07-02T11:11:06;99197.68;;;16.78;33.89
78064;BME280;67429;51.596;-3.264;2023-07-02T11:13:27;99196.38;;;16.96;33.01
78064;BME280;67429;51.596;-3.264;2023-07-02T11:15:53;99189.67;;;17.21;31.92
78064;BME280;67429;51.596;-3.264;2023-07-02T11:18:18;99192.73;;;18.17;30.64
78064;BME280;67429;51.596;-3.264;2023-07-02T11:20:45;99184.69;;;18.58;29.72
78064;BME280;67429;51.596;-3.264;2023-07-02T11:23:19;99186.29;;;18.26;29.95
78064;BME280;67429;51.596;-3.264;2023-07-02T11:25:34;99189.92;;;19.13;29.82
78064;BME280;67429;51.596;-3.264;2023-07-02T11:28:03;99183.88;;;18.37;30.85
78064;BME280;67429;51.596;-3.264;2023-07-02T11:30:25;99185.29;;;17.70;31.44
78064;BME280;67429;51.596;-3.264;2023-07-02T11:32:52;99183.08;;;17.96;31.75
78064;BME280;67429;51.596;-3.264;2023-07-02T11:35:17;99177.71;;;18.17;30.61
78064;BME280;67429;51.596;-3.264;2023-07-02T11:37:42;99177.92;;;18.74;30.01
78064;BME280;67429;51.596;-3.264;2023-07-02T11:40:08;99181.15;;;19.01;29.05
78064;BME280;67429;51.596;-3.264;2023-07-02T11:42:33;99183.28;;;19.41;29.47
78064;BME280;67429;51.596;-3.264;2023-07-02T11:44:58;99176.34;;;18.37;30.14
78064;BME280;67429;51.596;-3.264;2023-07-02T11:47:23;99175.94;;;17.44;31.31
78064;BME280;67429;51.596;-3.264;2023-07-02T11:49:49;99188.44;;;18.74;30.62
78064;BME280;67429;51.596;-3.264;2023-07-02T11:52:14;99184.50;;;17.86;30.64
78064;BME280;67429;51.596;-3.264;2023-07-02T11:54:40;99175.24;;;18.06;31.27
78064;BME280;67429;51.596;-3.264;2023-07-02T11:57:06;99183.78;;;18.17;30.75
78064;BME280;67429;51.596;-3.264;2023-07-02T11:59:30;99187.69;;;17.40;31.74
78064;BME280;67429;51.596;-3.264;2023-07-02T12:01:56;99190.64;;;17.34;32.15
78064;BME280;67429;51.596;-3.264;2023-07-02T12:04:21;99185.84;;;16.40;33.25
78064;BME280;67429;51.596;-3.264;2023-07-02T12:06:47;99181.29;;;17.70;31.78
78064;BME280;67429;51.596;-3.264;2023-07-02T12:09:12;99182.33;;;18.77;30.38
78064;BME280;67429;51.596;-3.264;2023-07-02T12:11:38;99179.33;;;19.80;29.35
78064;BME280;67429;51.596;-3.264;2023-07-02T12:14:03;99191.92;;;19.23;29.48
78064;BME280;67429;51.596;-3.264;2023-07-02T12:16:29;99192.53;;;17.86;31.69
78064;BME280;67429;51.596;-3.264;2023-07-02T12:18:54;99191.13;;;17.89;32.59
78064;BME280;67429;51.596;-3.264;2023-07-02T12:21:19;99189.00;;;18.25;31.79
78064;BME280;67429;51.596;-3.264;2023-07-02T12:23:44;99187.24;;;17.04;32.76
78064;BME280;67429;51.596;-3.264;2023-07-02T12:26:10;99186.31;;;16.97;32.69
78064;BME280;67429;51.596;-3.264;2023-07-02T12:28:35;99180.48;;;17.31;32.91
78064;BME280;67429;51.596;-3.264;2023-07-02T12:31:02;99188.39;;;17.77;31.78
78064;BME280;67429;51.596;-3.264;2023-07-02T12:33:26;99183.17;;;16.81;32.69
78064;BME280;67429;51.596;-3.264;2023-07-02T12:35:51;99181.32;;;17.17;32.32
78064;BME280;67429;51.596;-3.264;2023-07-02T12:38:17;99191.65;;;17.41;32.90
78064;BME280;67429;51.596;-3.264;2023-07-02T12:40:42;99179.65;;;18.10;33.13